Time;durP1;ratioP1;P1;durP2;ratioP2;P2;SDS_P1;SDS_P2;PMS_P1;PMS_P2;Temp;Humidity;BMP_temperature;BMP_pressure;BME280_temperature;BME280_humidity;BME280_pressure;Samples;Min_cycle;Max_cycle;Signal;HPM_P1;HPM_P2
2024/01/27 00:00:32;;;;;;;1.30;1.10;;;;;;;;;;4983349;28;59263;-76
2024/01/27 00:02:57;;;;;;;2.20;1.13;;;;;;;;;;4985907;28;58629;-75
2024/01/27 00:05:22;;;;;;;1.80;1.60;;;;;;;;;;4984195;28;59477;-74
2024/01/27 00:07:47;;;;;;;1.67;1.10;;;;;;;;;;4984531;28;59082;-76
2024/01/27 00:10:13;;;;;;;2.00;1.50;;;;;;;;;;4983491;28;58940;-74
2024/01/27 00:12:38;;;;;;;2.47;0.82;;;;;;;;;;4982863;28;59524;-74
2024/01/27 00:15:03;;;;;;;3.37;1.77;;;;;;;;;;4982474;28;59339;-79
2024/01/27 00:17:29;;;;;;;3.58;1.20;;;;;;;;;;4984839;28;58288;-79
2024/01/27 00:19:54;;;;;;;1.57;1.10;;;;;;;;;;4983363;28;58815;-77
2024/01/27 00:22:22;;;;;;;6.88;1.33;;;;;;;;;;4985174;28;58876;-78
2024/01/27 00:24:47;;;;;;;;;;;;;;;;;;4984548;28;59838;-78
2024/01/27 00:27:13;;;;;;;2.08;0.82;;;;;;;;;;4982940;28;58754;-78
2024/01/27 00:29:39;;;;;;;1.83;1.00;;;;;;;;;;4979265;28;58430;-77
2024/01/27 00:32:04;;;;;;;2.67;1.30;;;;;;;;;;4983699;28;60633;-77
2024/01/27 00:34:30;;;;;;;1.92;1.70;;;;;;;;;;4983412;28;58715;-79
2024/01/27 00:36:55;;;;;;;1.25;1.15;;;;;;;;;;4984300;28;58353;-78
2024/01/27 00:39:20;;;;;;;2.03;1.30;;;;;;;;;;4985728;28;58687;-78
2024/01/27 00:41:46;;;;;;;1.50;1.13;;;;;;;;;;4981208;28;59689;-77
2024/01/27 00:44:11;;;;;;;2.25;0.90;;;;;;;;;;4983885;28;58400;-79
2024/01/27 00:46:37;;;;;;;1.20;0.90;;;;;;;;;;4983100;28;58816;-79
2024/01/27 00:49:02;;;;;;;2.35;1.35;;;;;;;;;;4980385;28;59414;-78
2024/01/27 00:51:27;;;;;;;2.40;1.20;;;;;;;;;;4982761;28;58496;-78
2024/01/27 00:53:53;;;;;;;1.43;1.27;;;;;;;;;;4981461;28;59364;-79
2024/01/27 00:56:18;;;;;;;1.63;1.20;;;;;;;;;;4983659;28;58840;-79
2024/01/27 00:58:43;;;;;;;1.37;1.17;;;;;;;;;;4983834;28;59322;-79
2024/01/27 01:01:08;;;;;;;1.00;0.90;;;;;;;;;;4982090;28;58871;-78
2024/01/27 01:03:34;;;;;;;1.93;1.67;;;;;;;;;;4985641;28;58361;-77
2024/01/27 01:05:59;;;;;;;1.00;0.90;;;;;;;;;;4981795;28;59126;-78
2024/01/27 01:08:24;;;;;;;1.17;0.90;;;;;;;;;;4980787;28;58581;-78
2024/01/27 01:10:49;;;;;;;2.93;1.30;;;;;;;;;;4981863;28;59371;-78
2024/01/27 01:13:16;;;;;;;2.20;1.10;;;;;;;;;;4980344;28;59021;-74
2024/01/27 01:15:42;;;;;;;1.60;1.02;;;;;;;;;;4984570;28;58784;-74
2024/01/27 01:18:07;;;;;;;5.95;1.05;;;;;;;;;;4981830;28;59313;-76
2024/01/27 01:20:32;;;;;;;1.43;1.13;;;;;;;;;;4983690;28;59883;-73
2024/01/27 01:22:58;;;;;;;1.60;1.20;;;;;;;;;;4981692;28;58630;-74
2024/01/27 01:25:23;;;;;;;1.58;1.33;;;;;;;;;;4983605;28;59069;-75
2024/01/27 01:27:49;;;;;;;4.70;1.33;;;;;;;;;;4985056;28;58624;-73
2024/01/27 01:30:15;;;;;;;2.10;1.10;;;;;;;;;;4984062;28;59487;-78
2024/01/27 01:32:40;;;;;;;1.25;1.15;;;;;;;;;;4981217;28;58804;-73
2024/01/27 01:35:05;;;;;;;1.93;1.20;;;;;;;;;;4981223;28;58718;-74
2024/01/27 01:37:31;;;;;;;1.63;1.40;;;;;;;;;;4981919;28;58765;-78
2024/01/27 01:39:56;;;;;;;1.17;1.07;;;;;;;;;;4981365;28;59277;-74
2024/01/27 01:42:24;;;;;;;1.80;1.00;;;;;;;;;;4983038;28;58493;-75
2024/01/27 01:44:49;;;;;;;2.10;1.38;;;;;;;;;;4980630;28;58783;-74
2024/01/27 01:47:15;;;;;;;0.77;0.60;;;;;;;;;;4981392;28;59881;-76
2024/01/27 01:49:40;;;;;;;1.90;1.20;;;;;;;;;;4980242;28;58665;-75
2024/01/27 01:52:05;;;;;;;2.47;1.93;;;;;;;;;;4983062;28;59572;-76
2024/01/27 01:54:32;;;;;;;2.25;1.65;;;;;;;;;;4981736;28;58386;-78
2024/01/27 01:56:57;;;;;;;0.98;0.80;;;;;;;;;;4981305;28;60496;-75
2024/01/27 01:59:23;;;;;;;1.23;0.80;;;;;;;;;;4983593;28;58368;-77
2024/01/27 02:01:48;;;;;;;0.80;0.77;;;;;;;;;;4980434;28;58393;-74
2024/01/27 02:04:13;;;;;;;1.47;0.70;;;;;;;;;;4980638;28;58449;-76
2024/01/27 02:06:38;;;;;;;2.53;0.90;;;;;;;;;;4979687;28;59849;-75
2024/01/27 02:09:05;;;;;;;1.47;0.90;;;;;;;;;;4981944;28;58809;-69
2024/01/27 02:11:30;;;;;;;1.38;1.20;;;;;;;;;;4980343;28;58958;-67
2024/01/27 02:13:55;;;;;;;1.73;1.20;;;;;;;;;;4983279;28;58839;-69
2024/01/27 02:16:21;;;;;;;1.60;0.85;;;;;;;;;;4980024;28;60162;-69
2024/01/27 02:18:46;;;;;;;2.53;1.00;;;;;;;;;;4980635;28;59355;-69
2024/01/27 02:21:11;;;;;;;1.37;1.07;;;;;;;;;;4979732;28;58403;-71
2024/01/27 02:23:37;;;;;;;1.40;0.93;;;;;;;;;;4982027;28;58837;-70
2024/01/27 02:26:02;;;;;;;0.90;0.90;;;;;;;;;;4979144;28;59503;-70
2024/01/27 02:28:27;;;;;;;1.53;0.70;;;;;;;;;;4982669;28;58693;-70
2024/01/27 02:30:52;;;;;;;1.20;1.00;;;;;;;;;;4982699;28;58849;-70
2024/01/27 02:33:17;;;;;;;2.90;1.30;;;;;;;;;;4979986;28;58665;-70
2024/01/27 02:35:43;;;;;;;1.23;0.60;;;;;;;;;;4980143;28;58845;-69
2024/01/27 02:38:08;;;;;;;2.30;1.20;;;;;;;;;;4981662;28;60004;-71
2024/01/27 02:40:34;;;;;;;4.77;1.60;;;;;;;;;;4982288;28;58563;-72
2024/01/27 02:42:59;;;;;;;1.83;1.35;;;;;;;;;;4980491;28;58890;-70
2024/01/27 02:45:24;;;;;;;1.17;1.05;;;;;;;;;;4978847;28;58992;-71
2024/01/27 02:47:49;;;;;;;2.13;1.23;;;;;;;;;;4981250;28;58674;-70
2024/01/27 02:50:15;;;;;;;1.77;1.17;;;;;;;;;;4981160;28;59387;-70
2024/01/27 02:52:40;;;;;;;3.03;1.25;;;;;;;;;;4979486;28;58860;-72
2024/01/27 02:55:05;;;;;;;1.97;1.00;;;;;;;;;;4979920;28;60902;-70
2024/01/27 02:57:30;;;;;;;1.90;0.73;;;;;;;;;;4980960;28;59028;-70
2024/01/27 02:59:56;;;;;;;1.77;1.10;;;;;;;;;;4981453;28;58572;-70
2024/01/27 03:02:21;;;;;;;1.20;0.70;;;;;;;;;;4981652;28;58361;-70
2024/01/27 03:04:46;;;;;;;1.00;0.80;;;;;;;;;;4981080;28;58774;-69
2024/01/27 03:07:11;;;;;;;1.17;0.87;;;;;;;;;;4980781;28;58136;-70
2024/01/27 03:09:37;;;;;;;0.70;0.70;;;;;;;;;;4981788;28;59501;-68
2024/01/27 03:12:02;;;;;;;1.75;1.20;;;;;;;;;;4979521;28;59625;-67
2024/01/27 03:14:27;;;;;;;2.13;1.07;;;;;;;;;;4981775;28;59476;-69
2024/01/27 03:16:52;;;;;;;1.63;1.07;;;;;;;;;;4982660;28;60692;-69
2024/01/27 03:19:18;;;;;;;2.20;1.23;;;;;;;;;;4985231;28;58715;-69
2024/01/27 03:21:43;;;;;;;1.03;0.67;;;;;;;;;;4984337;28;60346;-70
2024/01/27 03:24:08;;;;;;;1.47;1.37;;;;;;;;;;4984606;28;58420;-70
2024/01/27 03:26:33;;;;;;;1.47;0.70;;;;;;;;;;4982526;28;58409;-70
2024/01/27 03:28:58;;;;;;;2.33;1.30;;;;;;;;;;4983960;28;58909;-69
2024/01/27 03:31:29;;;;;;;2.70;1.27;;;;;;;;;;4983595;28;59525;-69
2024/01/27 03:33:54;;;;;;;1.13;1.02;;;;;;;;;;4984283;28;59968;-69
2024/01/27 03:36:19;;;;;;;1.47;1.00;;;;;;;;;;4986149;28;59029;-69
2024/01/27 03:38:44;;;;;;;0.98;0.75;;;;;;;;;;4984288;28;58277;-71
2024/01/27 03:41:10;;;;;;;1.30;1.00;;;;;;;;;;4983298;28;58549;-71
2024/01/27 03:43:35;;;;;;;1.55;0.68;;;;;;;;;;4982227;28;58699;-71
2024/01/27 03:46:01;;;;;;;1.52;0.82;;;;;;;;;;4982613;28;59562;-73
2024/01/27 03:48:26;;;;;;;1.67;0.77;;;;;;;;;;4984954;28;61605;-70
2024/01/27 03:50:51;;;;;;;1.37;0.90;;;;;;;;;;4983025;28;58590;-71
2024/01/27 03:53:16;;;;;;;2.63;0.90;;;;;;;;;;4983382;28;58738;-71
2024/01/27 03:55:42;;;;;;;0.88;0.65;;;;;;;;;;4980712;28;61101;-70
2024/01/27 03:58:07;;;;;;;1.40;1.30;;;;;;;;;;4982019;28;58733;-69
2024/01/27 04:00:33;;;;;;;2.63;0.57;;;;;;;;;;4982976;28;58643;-70
2024/01/27 04:03:01;;;;;;;0.90;0.65;;;;;;;;;;4986061;28;59121;-69
2024/01/27 04:05:28;;;;;;;1.70;0.98;;;;;;;;;;4981539;28;59047;-69
2024/01/27 04:07:54;;;;;;;1.80;0.97;;;;;;;;;;4985072;28;59463;-69
2024/01/27 04:10:19;;;;;;;0.80;0.68;;;;;;;;;;4981283;28;58500;-70
2024/01/27 04:12:45;;;;;;;1.77;0.98;;;;;;;;;;4983213;28;58493;-70
2024/01/27 04:15:10;;;;;;;1.33;1.10;;;;;;;;;;4980810;28;59692;-69
2024/01/27 04:17:36;;;;;;;2.38;1.55;;;;;;;;;;4982928;28;59024;-69
2024/01/27 04:20:02;;;;;;;0.80;0.70;;;;;;;;;;4984406;28;59460;-70
2024/01/27 04:22:28;;;;;;;1.07;0.93;;;;;;;;;;4982382;28;59166;-71
2024/01/27 04:24:53;;;;;;;1.77;1.25;;;;;;;;;;4982711;28;58176;-72
2024/01/27 04:27:18;;;;;;;1.37;1.27;;;;;;;;;;4983352;28;59790;-69
2024/01/27 04:29:43;;;;;;;1.30;1.20;;;;;;;;;;4982828;28;58756;-70
2024/01/27 04:32:08;;;;;;;1.43;0.87;;;;;;;;;;4986163;28;58319;-70
2024/01/27 04:34:34;;;;;;;0.77;0.67;;;;;;;;;;4982646;28;59374;-69
2024/01/27 04:36:59;;;;;;;0.60;0.50;;;;;;;;;;4982401;28;58544;-68
2024/01/27 04:39:24;;;;;;;0.67;0.67;;;;;;;;;;4983083;28;59488;-69
2024/01/27 04:41:49;;;;;;;1.93;1.20;;;;;;;;;;4980908;28;59596;-69
2024/01/27 04:44:14;;;;;;;1.23;0.77;;;;;;;;;;4982950;28;59141;-73
2024/01/27 04:46:39;;;;;;;1.53;1.07;;;;;;;;;;4982995;28;59638;-73
2024/01/27 04:49:05;;;;;;;1.83;0.90;;;;;;;;;;4981089;28;58485;-73
2024/01/27 04:51:30;;;;;;;1.30;1.20;;;;;;;;;;4983684;28;58791;-74
2024/01/27 04:53:55;;;;;;;0.95;0.82;;;;;;;;;;4982126;28;58890;-74
2024/01/27 04:56:20;;;;;;;1.52;0.80;;;;;;;;;;4982004;28;59163;-74
2024/01/27 04:58:45;;;;;;;2.90;1.83;;;;;;;;;;4984182;28;58782;-74
2024/01/27 05:01:11;;;;;;;1.02;0.70;;;;;;;;;;4982451;28;60125;-74
2024/01/27 05:03:36;;;;;;;1.27;1.03;;;;;;;;;;4982737;28;58709;-74
2024/01/27 05:06:01;;;;;;;1.40;1.00;;;;;;;;;;4983209;28;60910;-74
2024/01/27 05:08:26;;;;;;;0.90;0.63;;;;;;;;;;4980492;28;60494;-74
2024/01/27 05:10:51;;;;;;;4.85;1.33;;;;;;;;;;4982774;28;58928;-74
2024/01/27 05:13:17;;;;;;;1.77;1.35;;;;;;;;;;4982504;28;58506;-74
2024/01/27 05:15:42;;;;;;;0.90;0.80;;;;;;;;;;4982396;28;58698;-74
2024/01/27 05:18:07;;;;;;;1.30;1.17;;;;;;;;;;4984211;28;58592;-74
2024/01/27 05:20:32;;;;;;;1.50;0.90;;;;;;;;;;4982591;28;58731;-74
2024/01/27 05:22:57;;;;;;;0.60;0.60;;;;;;;;;;4981565;28;59414;-74
2024/01/27 05:25:22;;;;;;;1.00;0.70;;;;;;;;;;4982816;28;59276;-74
2024/01/27 05:27:47;;;;;;;2.27;1.00;;;;;;;;;;4980791;28;58823;-74
2024/01/27 05:30:13;;;;;;;0.70;0.47;;;;;;;;;;4979661;28;58448;-74
2024/01/27 05:32:38;;;;;;;1.23;0.80;;;;;;;;;;4981353;28;59306;-72
2024/01/27 05:35:04;;;;;;;1.17;1.07;;;;;;;;;;4981018;28;59348;-73
2024/01/27 05:37:30;;;;;;;1.60;1.00;;;;;;;;;;4979211;28;58548;-75
2024/01/27 05:39:55;;;;;;;1.65;0.70;;;;;;;;;;4979657;28;59749;-75
2024/01/27 05:42:21;;;;;;;1.20;0.75;;;;;;;;;;4982604;28;58565;-72
2024/01/27 05:44:46;;;;;;;1.10;0.75;;;;;;;;;;4980449;28;58849;-72
2024/01/27 05:47:11;;;;;;;1.42;0.50;;;;;;;;;;4981662;28;58782;-73
2024/01/27 05:49:36;;;;;;;0.73;0.63;;;;;;;;;;4980752;28;59946;-72
2024/01/27 05:52:02;;;;;;;1.70;0.90;;;;;;;;;;4980393;28;59510;-73
2024/01/27 05:54:27;;;;;;;1.50;0.90;;;;;;;;;;4982639;28;58911;-67
2024/01/27 05:56:52;;;;;;;1.27;0.60;;;;;;;;;;4981577;28;58838;-67
2024/01/27 05:59:17;;;;;;;1.60;0.70;;;;;;;;;;4982305;28;60406;-68
2024/01/27 06:01:44;;;;;;;1.47;0.70;;;;;;;;;;4979942;28;58371;-67
2024/01/27 06:04:09;;;;;;;1.48;1.05;;;;;;;;;;4983151;28;58611;-73
2024/01/27 06:06:37;;;;;;;0.57;0.57;;;;;;;;;;4981244;28;59379;-73
2024/01/27 06:09:03;;;;;;;;;;;;;;;;;;4979824;28;58698;-73
2024/01/27 06:11:28;;;;;;;0.93;0.90;;;;;;;;;;4981555;28;59261;-73
2024/01/27 06:13:54;;;;;;;0.80;0.57;;;;;;;;;;4980160;28;59138;-73
2024/01/27 06:16:19;;;;;;;2.42;1.05;;;;;;;;;;4981385;28;58421;-73
2024/01/27 06:18:44;;;;;;;1.08;0.95;;;;;;;;;;4980643;28;59249;-72
2024/01/27 06:21:10;;;;;;;1.37;1.03;;;;;;;;;;4981113;28;58863;-73
2024/01/27 06:23:35;;;;;;;1.13;0.70;;;;;;;;;;4981505;28;58481;-73
2024/01/27 06:26:05;;;;;;;3.10;1.33;;;;;;;;;;4983051;28;58814;-73
2024/01/27 06:28:30;;;;;;;0.88;0.77;;;;;;;;;;4980435;28;58829;-74
2024/01/27 06:30:55;;;;;;;1.13;1.02;;;;;;;;;;4979089;28;59283;-73
2024/01/27 06:33:20;;;;;;;1.67;1.10;;;;;;;;;;4978946;28;60098;-73
2024/01/27 06:35:45;;;;;;;1.30;0.80;;;;;;;;;;4981334;28;58902;-73
2024/01/27 06:38:10;;;;;;;1.50;1.07;;;;;;;;;;4978457;28;59356;-72
2024/01/27 06:40:36;;;;;;;0.97;0.90;;;;;;;;;;4980093;28;58568;-73
2024/01/27 06:43:01;;;;;;;0.80;0.57;;;;;;;;;;4981479;28;58942;-73
2024/01/27 06:45:26;;;;;;;3.83;1.23;;;;;;;;;;4981614;28;59860;-74
2024/01/27 06:47:51;;;;;;;0.90;0.50;;;;;;;;;;4980645;28;59085;-74
2024/01/27 06:50:16;;;;;;;1.17;0.80;;;;;;;;;;4980160;28;60009;-73
2024/01/27 06:52:41;;;;;;;1.13;1.03;;;;;;;;;;4980402;28;58695;-75
2024/01/27 06:55:07;;;;;;;1.57;1.03;;;;;;;;;;4981871;28;58809;-75
2024/01/27 06:57:32;;;;;;;1.30;1.10;;;;;;;;;;4981363;28;59386;-75
2024/01/27 06:59:58;;;;;;;1.60;1.00;;;;;;;;;;4980077;28;58920;-75
2024/01/27 07:02:23;;;;;;;0.63;0.60;;;;;;;;;;4979688;28;58541;-73
2024/01/27 07:04:48;;;;;;;4.93;1.17;;;;;;;;;;4980326;28;59549;-74
2024/01/27 07:07:13;;;;;;;0.70;0.50;;;;;;;;;;4980700;28;59205;-75
2024/01/27 07:09:39;;;;;;;1.10;1.00;;;;;;;;;;4980140;28;59500;-75
2024/01/27 07:12:05;;;;;;;0.47;0.47;;;;;;;;;;4980289;28;58865;-74
2024/01/27 07:14:30;;;;;;;0.70;0.55;;;;;;;;;;4979622;28;58641;-70
2024/01/27 07:16:55;;;;;;;1.10;0.83;;;;;;;;;;4977592;28;58700;-70
2024/01/27 07:19:20;;;;;;;1.13;0.93;;;;;;;;;;4978012;28;59675;-72
2024/01/27 07:21:45;;;;;;;0.97;0.50;;;;;;;;;;4983604;28;58760;-68
2024/01/27 07:24:10;;;;;;;1.63;0.95;;;;;;;;;;4979868;28;59098;-69
2024/01/27 07:26:35;;;;;;;0.60;0.60;;;;;;;;;;4978727;28;58841;-70
2024/01/27 07:29:01;;;;;;;2.10;1.07;;;;;;;;;;4981780;28;58804;-70
2024/01/27 07:31:26;;;;;;;0.40;0.40;;;;;;;;;;4978261;28;58358;-71
2024/01/27 07:33:51;;;;;;;1.45;1.27;;;;;;;;;;4978193;28;58988;-69
2024/01/27 07:36:16;;;;;;;1.00;0.50;;;;;;;;;;4981347;28;59999;-70
2024/01/27 07:38:42;;;;;;;2.28;0.98;;;;;;;;;;4980573;28;59375;-69
2024/01/27 07:41:07;;;;;;;1.20;0.70;;;;;;;;;;4979838;28;58738;-70
2024/01/27 07:43:32;;;;;;;1.05;0.70;;;;;;;;;;4980444;28;59752;-71
2024/01/27 07:45:57;;;;;;;1.53;1.10;;;;;;;;;;4980107;28;58571;-71
2024/01/27 07:48:22;;;;;;;0.70;0.70;;;;;;;;;;4982748;28;58396;-69
2024/01/27 07:50:49;;;;;;;1.30;0.83;;;;;;;;;;4980158;28;60069;-70
2024/01/27 07:53:14;;;;;;;1.35;0.80;;;;;;;;;;4982554;28;58294;-70
2024/01/27 07:55:40;;;;;;;1.00;0.77;;;;;;;;;;4980634;28;59082;-70
2024/01/27 07:58:05;;;;;;;1.67;0.80;;;;;;;;;;4978777;28;58770;-72
2024/01/27 08:00:31;;;;;;;1.13;0.45;;;;;;;;;;4981341;28;58840;-69
2024/01/27 08:02:56;;;;;;;1.25;1.05;;;;;;;;;;4982584;28;58722;-72
2024/01/27 08:05:21;;;;;;;1.70;0.80;;;;;;;;;;4980823;28;60557;-70
2024/01/27 08:07:46;;;;;;;0.77;0.65;;;;;;;;;;4984012;28;58442;-71
2024/01/27 08:10:11;;;;;;;1.07;0.60;;;;;;;;;;4982921;28;59196;-70
2024/01/27 08:12:37;;;;;;;1.70;0.50;;;;;;;;;;4984308;28;59087;-70
2024/01/27 08:15:02;;;;;;;0.68;0.40;;;;;;;;;;4983251;28;60955;-75
2024/01/27 08:17:27;;;;;;;1.10;0.63;;;;;;;;;;4982797;28;58860;-70
2024/01/27 08:19:52;;;;;;;0.93;0.90;;;;;;;;;;4983242;28;58118;-71
2024/01/27 08:22:18;;;;;;;2.07;1.20;;;;;;;;;;4982673;28;59807;-70
2024/01/27 08:24:43;;;;;;;0.52;0.40;;;;;;;;;;4983350;28;59489;-74
2024/01/27 08:27:09;;;;;;;0.80;0.55;;;;;;;;;;4983635;28;58645;-75
2024/01/27 08:29:34;;;;;;;1.17;0.60;;;;;;;;;;4981178;28;60504;-75
2024/01/27 08:31:59;;;;;;;0.70;0.70;;;;;;;;;;4981321;28;59469;-74
2024/01/27 08:34:24;;;;;;;1.08;0.63;;;;;;;;;;4982291;28;58384;-75
2024/01/27 08:36:49;;;;;;;0.90;0.70;;;;;;;;;;4980959;28;58646;-74
2024/01/27 08:39:15;;;;;;;1.10;0.80;;;;;;;;;;4982861;28;59327;-75
2024/01/27 08:41:40;;;;;;;0.47;0.47;;;;;;;;;;4980745;28;60202;-74
2024/01/27 08:44:05;;;;;;;0.73;0.73;;;;;;;;;;4981743;28;58840;-75
2024/01/27 08:46:30;;;;;;;1.00;0.60;;;;;;;;;;4983155;28;58457;-74
2024/01/27 08:48:55;;;;;;;0.40;0.40;;;;;;;;;;4981135;28;58756;-75
2024/01/27 08:51:20;;;;;;;1.05;0.95;;;;;;;;;;4980835;28;58742;-74
2024/01/27 08:53:48;;;;;;;1.53;0.57;;;;;;;;;;4983774;28;59050;-75
2024/01/27 08:56:14;;;;;;;1.55;0.73;;;;;;;;;;4977489;28;60146;-75
2024/01/27 08:58:39;;;;;;;1.48;1.00;;;;;;;;;;4980424;28;58603;-75
2024/01/27 09:01:07;;;;;;;1.17;0.80;;;;;;;;;;4981625;28;58599;-75
2024/01/27 09:03:32;;;;;;;;;;;;;;;;;;4981261;28;59367;-74
2024/01/27 09:05:57;;;;;;;1.17;0.77;;;;;;;;;;4980378;28;59034;-75
2024/01/27 09:08:22;;;;;;;0.98;0.60;;;;;;;;;;4982147;28;60943;-74
2024/01/27 09:10:48;;;;;;;0.95;0.90;;;;;;;;;;4981836;28;58902;-75
2024/01/27 09:13:13;;;;;;;1.57;0.73;;;;;;;;;;4984137;28;59790;-75
2024/01/27 09:15:38;;;;;;;2.13;1.00;;;;;;;;;;4980903;28;58837;-74
2024/01/27 09:18:05;;;;;;;1.20;0.68;;;;;;;;;;4982350;28;58628;-77
2024/01/27 09:20:31;;;;;;;1.15;0.80;;;;;;;;;;4980725;28;59499;-79
2024/01/27 09:22:56;;;;;;;1.00;0.63;;;;;;;;;;4980611;28;59666;-79
2024/01/27 09:25:21;;;;;;;1.38;1.15;;;;;;;;;;4980146;28;59282;-76
2024/01/27 09:27:47;;;;;;;1.55;0.88;;;;;;;;;;4981376;28;59346;-77
2024/01/27 09:30:12;;;;;;;1.33;0.80;;;;;;;;;;4982439;28;59125;-76
2024/01/27 09:32:37;;;;;;;2.05;0.90;;;;;;;;;;4982824;28;58901;-78
2024/01/27 09:35:02;;;;;;;3.17;1.13;;;;;;;;;;4980470;28;59538;-75
2024/01/27 09:37:28;;;;;;;5.53;0.90;;;;;;;;;;4983032;28;58880;-75
2024/01/27 09:39:53;;;;;;;2.83;1.37;;;;;;;;;;4982885;28;59499;-76
2024/01/27 09:42:20;;;;;;;2.33;1.23;;;;;;;;;;4982824;28;59017;-78
2024/01/27 09:44:47;;;;;;;1.38;0.60;;;;;;;;;;4980531;28;58712;-76
2024/01/27 09:47:13;;;;;;;2.27;0.70;;;;;;;;;;4982411;28;60346;-76
2024/01/27 09:49:39;;;;;;;1.38;0.80;;;;;;;;;;4980176;28;59955;-75
2024/01/27 09:52:05;;;;;;;2.83;0.82;;;;;;;;;;4982525;28;58793;-79
2024/01/27 09:54:30;;;;;;;2.03;1.33;;;;;;;;;;4982092;28;59271;-75
2024/01/27 09:56:55;;;;;;;1.23;0.60;;;;;;;;;;4980913;28;58508;-75
2024/01/27 09:59:21;;;;;;;1.17;0.93;;;;;;;;;;4983066;28;59256;-77
2024/01/27 10:01:47;;;;;;;1.53;1.00;;;;;;;;;;4980520;28;58943;-75
2024/01/27 10:04:13;;;;;;;3.38;0.93;;;;;;;;;;4981415;28;59529;-79
2024/01/27 10:06:39;;;;;;;3.17;0.95;;;;;;;;;;4982473;28;58663;-75
2024/01/27 10:09:05;;;;;;;3.28;0.90;;;;;;;;;;4982286;28;59319;-78
2024/01/27 10:11:33;;;;;;;5.87;1.27;;;;;;;;;;4979477;28;58547;-76
2024/01/27 10:14:02;;;;;;;2.22;0.68;;;;;;;;;;4979564;28;60491;-75
2024/01/27 10:16:28;;;;;;;3.88;0.95;;;;;;;;;;4982917;28;60087;-75
2024/01/27 10:19:02;;;;;;;1.42;0.90;;;;;;;;;;4980463;28;58542;-74
2024/01/27 10:21:27;;;;;;;1.45;0.80;;;;;;;;;;4983456;28;58536;-76
2024/01/27 10:23:53;;;;;;;1.90;0.80;;;;;;;;;;4979464;28;59536;-76
2024/01/27 10:26:18;;;;;;;1.67;1.07;;;;;;;;;;4981189;28;59388;-75
2024/01/27 10:28:51;;;;;;;2.80;0.93;;;;;;;;;;4980879;28;59238;-77
2024/01/27 10:31:19;;;;;;;2.83;1.48;;;;;;;;;;4979358;28;58884;-76
2024/01/27 10:33:54;;;;;;;5.47;1.05;;;;;;;;;;4979929;28;58666;-78
2024/01/27 10:36:19;;;;;;;2.50;0.98;;;;;;;;;;4979703;28;63264;-77
2024/01/27 10:38:45;;;;;;;5.70;1.52;;;;;;;;;;4981268;28;59074;-72
2024/01/27 10:41:10;;;;;;;2.67;0.82;;;;;;;;;;4978103;28;59875;-72
2024/01/27 10:43:36;;;;;;;7.90;1.50;;;;;;;;;;4979469;28;60336;-73
2024/01/27 10:46:02;;;;;;;5.95;1.10;;;;;;;;;;4979707;28;59272;-72
2024/01/27 10:48:28;;;;;;;3.90;1.23;;;;;;;;;;4980059;28;59243;-73
2024/01/27 10:50:53;;;;;;;2.95;1.30;;;;;;;;;;4978629;28;59527;-74
2024/01/27 10:53:23;;;;;;;4.60;1.80;;;;;;;;;;4981595;28;59095;-73
2024/01/27 10:55:50;;;;;;;12.55;2.83;;;;;;;;;;4976738;28;59802;-74
2024/01/27 10:58:15;;;;;;;6.07;1.73;;;;;;;;;;4979709;28;58783;-74
2024/01/27 11:00:41;;;;;;;8.38;2.63;;;;;;;;;;4978856;28;60474;-75
2024/01/27 11:03:08;;;;;;;4.32;1.95;;;;;;;;;;4979913;28;59918;-74
2024/01/27 11:05:35;;;;;;;6.82;2.75;;;;;;;;;;4979459;28;58674;-75
2024/01/27 11:08:00;;;;;;;3.07;1.77;;;;;;;;;;4979979;28;58878;-75
2024/01/27 11:10:26;;;;;;;6.20;2.58;;;;;;;;;;4981083;28;58742;-74
2024/01/27 11:12:52;;;;;;;9.20;2.65;;;;;;;;;;4980574;28;60958;-73
2024/01/27 11:15:17;;;;;;;4.30;1.27;;;;;;;;;;4979361;28;63431;-74
2024/01/27 11:17:44;;;;;;;8.02;1.58;;;;;;;;;;4981231;28;59405;-74
2024/01/27 11:20:11;;;;;;;5.53;2.42;;;;;;;;;;4979692;28;58913;-74
2024/01/27 11:22:37;;;;;;;6.53;1.73;;;;;;;;;;4980439;28;59203;-75
2024/01/27 11:25:05;;;;;;;12.20;2.30;;;;;;;;;;4983275;28;58779;-75
2024/01/27 11:27:30;;;;;;;;;;;;;;;;;;4981395;28;58590;-75
2024/01/27 11:29:55;;;;;;;6.20;2.17;;;;;;;;;;4979605;28;58383;-74
2024/01/27 11:32:20;;;;;;;8.57;2.63;;;;;;;;;;4979458;28;59354;-75
2024/01/27 11:34:46;;;;;;;4.63;2.10;;;;;;;;;;4978619;28;58622;-75
2024/01/27 11:37:15;;;;;;;3.90;1.27;;;;;;;;;;4983874;28;59202;-74
2024/01/27 11:39:40;;;;;;;3.75;1.48;;;;;;;;;;4984162;28;59411;-74
2024/01/27 11:42:09;;;;;;;2.47;1.50;;;;;;;;;;4983347;28;59783;-74
2024/01/27 11:44:37;;;;;;;7.75;2.08;;;;;;;;;;4983901;28;58970;-74
2024/01/27 11:47:03;;;;;;;4.68;1.83;;;;;;;;;;4983377;28;59726;-75
2024/01/27 11:49:28;;;;;;;4.32;1.88;;;;;;;;;;4986993;28;58284;-76
2024/01/27 11:51:54;;;;;;;2.67;1.75;;;;;;;;;;4985534;28;58855;-75
2024/01/27 11:54:19;;;;;;;7.55;2.00;;;;;;;;;;4982355;28;59240;-74
2024/01/27 11:56:44;;;;;;;7.07;2.80;;;;;;;;;;4984691;28;58351;-75
2024/01/27 11:59:10;;;;;;;5.73;2.10;;;;;;;;;;4983222;28;58871;-74
2024/01/27 12:01:36;;;;;;;4.82;1.40;;;;;;;;;;4981857;28;59036;-74
2024/01/27 12:04:02;;;;;;;2.72;1.33;;;;;;;;;;4984925;28;58482;-74
2024/01/27 12:06:28;;;;;;;2.78;1.52;;;;;;;;;;4984098;28;59548;-74
2024/01/27 12:08:55;;;;;;;4.38;1.65;;;;;;;;;;4981601;28;58879;-75
2024/01/27 12:11:21;;;;;;;5.10;1.52;;;;;;;;;;4984117;28;59529;-75
2024/01/27 12:13:46;;;;;;;5.05;2.03;;;;;;;;;;4981628;28;59933;-74
2024/01/27 12:16:12;;;;;;;5.57;2.43;;;;;;;;;;4983378;28;58572;-75
2024/01/27 12:18:37;;;;;;;2.85;1.27;;;;;;;;;;4985070;28;59644;-75
2024/01/27 12:21:02;;;;;;;2.97;1.67;;;;;;;;;;4980754;28;58924;-75
2024/01/27 12:23:27;;;;;;;4.40;2.23;;;;;;;;;;4980666;28;58622;-75
2024/01/27 12:25:54;;;;;;;9.97;2.00;;;;;;;;;;4979785;28;59580;-74
2024/01/27 12:28:20;;;;;;;6.70;2.50;;;;;;;;;;4982287;28;60572;-80
2024/01/27 12:30:45;;;;;;;5.07;2.17;;;;;;;;;;4980880;28;58605;-79
2024/01/27 12:33:11;;;;;;;12.07;2.30;;;;;;;;;;4978521;28;59666;-77
2024/01/27 12:35:37;;;;;;;9.50;1.92;;;;;;;;;;4980622;28;58442;-80
2024/01/27 12:38:02;;;;;;;7.03;3.00;;;;;;;;;;4983375;28;59110;-81
2024/01/27 12:40:28;;;;;;;9.38;1.98;;;;;;;;;;4981373;28;58900;-77
2024/01/27 12:42:53;;;;;;;4.60;1.70;;;;;;;;;;4980512;28;58810;-77
2024/01/27 12:45:18;;;;;;;4.03;1.55;;;;;;;;;;4983020;28;59601;-77
2024/01/27 12:47:44;;;;;;;10.00;3.45;;;;;;;;;;4981209;28;59283;-77
2024/01/27 12:50:09;;;;;;;4.80;1.77;;;;;;;;;;4982106;28;59086;-79
2024/01/27 12:52:34;;;;;;;7.50;1.40;;;;;;;;;;4982530;28;59470;-79
2024/01/27 12:54:59;;;;;;;7.67;2.60;;;;;;;;;;4983410;28;58872;-79
2024/01/27 12:57:25;;;;;;;6.90;2.50;;;;;;;;;;4983875;28;60640;-79
2024/01/27 12:59:50;;;;;;;5.07;2.43;;;;;;;;;;4980784;28;59704;-78
2024/01/27 13:02:15;;;;;;;3.07;1.13;;;;;;;;;;4983361;28;58987;-78
2024/01/27 13:04:40;;;;;;;4.75;1.83;;;;;;;;;;4980243;28;59182;-76
2024/01/27 13:07:05;;;;;;;3.47;1.40;;;;;;;;;;4980265;28;58882;-74
2024/01/27 13:09:31;;;;;;;6.18;1.80;;;;;;;;;;4983080;28;58997;-75
2024/01/27 13:11:56;;;;;;;8.13;2.23;;;;;;;;;;4980879;28;59531;-75
2024/01/27 13:14:22;;;;;;;7.53;1.57;;;;;;;;;;4981836;28;58829;-75
2024/01/27 13:16:47;;;;;;;5.15;1.83;;;;;;;;;;4979992;28;59558;-74
2024/01/27 13:19:12;;;;;;;5.37;1.80;;;;;;;;;;4981676;28;59927;-74
2024/01/27 13:21:39;;;;;;;23.73;1.80;;;;;;;;;;4983097;28;58727;-77
2024/01/27 13:24:05;;;;;;;2.67;1.40;;;;;;;;;;4982583;28;59636;-75
2024/01/27 13:26:32;;;;;;;4.13;1.88;;;;;;;;;;4979166;28;59364;-75
2024/01/27 13:28:57;;;;;;;5.07;1.98;;;;;;;;;;4980239;28;58497;-72
2024/01/27 13:31:22;;;;;;;3.37;1.37;;;;;;;;;;4979833;28;59338;-72
2024/01/27 13:33:47;;;;;;;9.23;1.40;;;;;;;;;;4981199;28;59041;-72
2024/01/27 13:36:13;;;;;;;4.40;1.20;;;;;;;;;;4982481;28;58986;-72
2024/01/27 13:38:38;;;;;;;4.27;1.70;;;;;;;;;;4979348;28;58947;-66
2024/01/27 13:41:03;;;;;;;6.93;2.27;;;;;;;;;;4980518;28;58426;-67
2024/01/27 13:43:28;;;;;;;8.23;3.27;;;;;;;;;;4980397;28;58547;-67
2024/01/27 13:45:54;;;;;;;7.50;1.88;;;;;;;;;;4981717;28;59375;-66
2024/01/27 13:48:19;;;;;;;6.05;1.65;;;;;;;;;;4979968;28;58897;-67
2024/01/27 13:50:45;;;;;;;5.82;2.50;;;;;;;;;;4981579;28;59966;-67
2024/01/27 13:53:10;;;;;;;3.65;1.35;;;;;;;;;;4979026;28;59430;-67
2024/01/27 13:55:35;;;;;;;4.90;1.48;;;;;;;;;;4980809;28;58637;-66
2024/01/27 13:58:00;;;;;;;6.60;2.40;;;;;;;;;;4980442;28;59938;-67
2024/01/27 14:00:26;;;;;;;3.43;1.87;;;;;;;;;;4984876;28;58614;-66
2024/01/27 14:02:51;;;;;;;5.33;1.63;;;;;;;;;;4978567;28;60946;-67
2024/01/27 14:05:17;;;;;;;5.15;1.90;;;;;;;;;;4981730;28;59274;-67
2024/01/27 14:07:42;;;;;;;10.23;2.03;;;;;;;;;;4979443;28;58540;-66
2024/01/27 14:10:08;;;;;;;3.38;1.50;;;;;;;;;;4981390;28;59475;-67
2024/01/27 14:12:33;;;;;;;3.38;1.20;;;;;;;;;;4979824;28;59827;-67
2024/01/27 14:15:04;;;;;;;4.28;1.85;;;;;;;;;;4980052;28;58914;-73
2024/01/27 14:17:29;;;;;;;4.45;1.90;;;;;;;;;;4981761;28;59634;-73
2024/01/27 14:19:54;;;;;;;3.90;1.35;;;;;;;;;;4979177;28;59160;-73
2024/01/27 14:22:19;;;;;;;3.57;1.37;;;;;;;;;;4979721;28;59105;-73
2024/01/27 14:24:44;;;;;;;7.17;1.47;;;;;;;;;;4980599;28;59259;-73
2024/01/27 14:27:10;;;;;;;3.60;1.73;;;;;;;;;;4981391;28;58539;-73
2024/01/27 14:29:36;;;;;;;4.43;1.77;;;;;;;;;;4980544;28;59007;-73
2024/01/27 14:32:02;;;;;;;3.80;1.05;;;;;;;;;;4981456;28;59291;-73